createdAt,value
2022-10-23T00:01:55.703Z,18.48
2022-10-23T00:04:34.883Z,18.17
2022-10-23T00:07:07.232Z,17.38
2022-10-23T00:12:40.151Z,18.48
2022-10-23T00:15:32.936Z,21.70
2022-10-23T00:21:27.186Z,15.75
2022-10-23T00:24:15.764Z,17.25
2022-10-23T00:27:09.989Z,18.33
2022-10-23T00:29:41.215Z,15.70
2022-10-23T10:02:31.437Z,10.88
2022-10-23T10:20:35.484Z,8.23
2022-10-23T12:00:02.500Z,7.30
2022-10-23T12:02:44.512Z,6.00
2022-10-23T12:05:34.861Z,7.90
2022-10-23T12:08:02.737Z,8.25
2022-10-23T12:10:37.133Z,8.48
2022-10-23T12:32:58.274Z,7.30
2022-10-23T12:36:14.301Z,6.85
2022-10-23T12:39:00.048Z,6.85
2022-10-23T12:55:54.517Z,6.70
2022-10-23T12:58:42.934Z,6.43
2022-10-23T13:02:09.365Z,7.30
2022-10-23T13:05:04.539Z,7.35
2022-10-23T14:06:27.246Z,7.70
2022-10-23T14:09:56.840Z,6.80
2022-10-23T14:31:07.409Z,5.40
2022-10-23T15:46:43.973Z,8.82
2022-10-23T15:49:13.455Z,6.45
2022-10-23T19:13:50.383Z,8.23
2022-10-23T20:57:00.761Z,6.88
2022-10-23T20:59:27.101Z,6.47
2022-10-23T21:02:00.120Z,5.22
2022-10-23T21:59:55.258Z,4.25
2022-10-23T22:03:03.129Z,3.97
2022-10-23T22:05:39.330Z,3.67
2022-10-23T22:08:18.067Z,2.35
2022-10-23T22:10:51.946Z,3.15
2022-10-23T22:13:52.856Z,5.80
2022-10-23T22:16:33.792Z,5.40
2022-10-23T22:19:44.634Z,5.38
2022-10-23T22:22:23.163Z,3.05
2022-10-23T22:25:13.452Z,3.47
2022-10-23T22:28:01.565Z,6.53
2022-10-23T22:30:32.146Z,3.15
2022-10-23T22:33:10.908Z,5.53
2022-10-23T22:36:11.481Z,5.45
2022-10-23T22:38:50.090Z,5.50
2022-10-23T22:41:28.378Z,5.07
2022-10-23T22:44:02.032Z,4.72
2022-10-23T22:46:48.761Z,4.35
2022-10-23T22:49:59.780Z,3.60
2022-10-23T22:52:35.807Z,5.13
2022-10-23T22:55:09.800Z,4.93
2022-10-23T22:57:40.436Z,6.90
2022-10-23T23:00:16.609Z,4.32
2022-10-23T23:02:44.781Z,4.80
2022-10-23T23:05:30.424Z,5.82
2022-10-23T23:08:45.464Z,3.38
2022-10-23T23:11:45.648Z,6.47
2022-10-23T23:24:34.225Z,4.25
2022-10-23T23:28:01.369Z,6.25
2022-10-23T23:30:24.613Z,6.25
2022-10-23T23:33:19.474Z,6.25
2022-10-23T23:39:49.778Z,6.00
2022-10-23T23:52:39.587Z,6.75
